Time;durP1;ratioP1;P1;durP2;ratioP2;P2;SDS_P1;SDS_P2;PMS_P1;PMS_P2;Temp;Humidity;BMP_temperature;BMP_pressure;BME280_temperature;BME280_humidity;BME280_pressure;Samples;Min_cycle;Max_cycle;Signal;HPM_P1;HPM_P2
2021/10/26 00:00:29;;;;;;;9.57;6.90;;;7.10;99.90;;;;;;6245284;22;20423;-87
2021/10/26 00:02:55;;;;;;;8.23;7.43;;;7.00;99.90;;;;;;6231416;22;20493;-86
2021/10/26 00:05:20;;;;;;;9.73;7.90;;;7.00;99.90;;;;;;6232533;22;20173;-87
2021/10/26 00:07:46;;;;;;;8.83;7.80;;;6.90;99.90;;;;;;6233285;23;20874;-86
2021/10/26 00:10:12;;;;;;;9.70;8.00;;;6.70;99.90;;;;;;6231529;22;20659;-86
2021/10/26 00:12:38;;;;;;;8.53;7.80;;;6.60;99.90;;;;;;6233592;22;20298;-86
2021/10/26 00:15:05;;;;;;;9.70;8.13;;;6.80;99.90;;;;;;6232749;22;20399;-86
2021/10/26 00:17:30;;;;;;;9.13;8.07;;;6.90;99.90;;;;;;6231360;23;20405;-86
2021/10/26 00:19:56;;;;;;;8.23;7.33;;;6.80;99.90;;;;;;6235812;22;20405;-86
2021/10/26 00:22:22;;;;;;;9.27;8.33;;;6.60;99.90;;;;;;6234285;22;20544;-87
2021/10/26 00:24:48;;;;;;;8.60;7.70;;;6.50;99.90;;;;;;6230215;22;20701;-86
2021/10/26 00:27:13;;;;;;;8.00;7.20;;;6.40;99.90;;;;;;6231980;22;20581;-86
2021/10/26 00:29:39;;;;;;;7.63;6.93;;;6.40;99.90;;;;;;6231040;22;20159;-86
2021/10/26 00:32:05;;;;;;;8.27;7.30;;;6.50;99.90;;;;;;6230274;22;20285;-86
2021/10/26 00:34:31;;;;;;;7.20;6.50;;;6.50;99.90;;;;;;6232109;23;20531;-86
2021/10/26 00:36:58;;;;;;;8.27;7.47;;;6.60;99.90;;;;;;6232379;22;20568;-86
2021/10/26 00:39:24;;;;;;;10.60;7.67;;;6.70;99.90;;;;;;6230468;22;20163;-86
2021/10/26 00:41:50;;;;;;;8.50;7.23;;;6.80;99.90;;;;;;6231486;22;20501;-86
2021/10/26 00:44:16;;;;;;;8.87;7.60;;;6.80;99.90;;;;;;6230977;22;20189;-86
2021/10/26 00:46:42;;;;;;;10.47;7.37;;;6.90;99.90;;;;;;6230731;22;20768;-86
2021/10/26 00:49:11;;;;;;;7.80;7.00;;;6.90;99.90;;;;;;6233151;22;20409;-86
2021/10/26 00:51:39;;;;;;;8.97;7.40;;;7.00;99.90;;;;;;6231194;22;20161;-86
2021/10/26 00:54:06;;;;;;;8.00;7.17;;;6.90;99.90;;;;;;6230393;22;20449;-86
2021/10/26 00:56:32;;;;;;;9.27;7.07;;;6.90;99.90;;;;;;6232549;22;20448;-86
2021/10/26 00:58:59;;;;;;;6.90;6.30;;;7.00;99.90;;;;;;6230578;22;20394;-86
2021/10/26 01:01:25;;;;;;;7.80;6.70;;;7.00;99.90;;;;;;6230160;22;20398;-86
2021/10/26 01:03:54;;;;;;;9.93;8.10;;;7.00;99.90;;;;;;6230495;22;20409;-86
2021/10/26 01:06:23;;;;;;;8.47;7.30;;;7.10;99.90;;;;;;6230123;22;20934;-86
2021/10/26 01:08:49;;;;;;;8.30;7.47;;;7.20;99.90;;;;;;6232162;22;20807;-86
2021/10/26 01:11:22;;;;;;;10.40;8.27;;;7.20;99.90;;;;;;6233160;22;20395;-86
2021/10/26 01:13:48;;;;;;;8.60;7.70;;;7.20;99.90;;;;;;6230927;22;20418;-86
2021/10/26 01:16:14;;;;;;;8.13;7.33;;;7.10;99.90;;;;;;6232404;22;20413;-87
2021/10/26 01:18:40;;;;;;;9.30;7.60;;;7.00;99.90;;;;;;6232614;22;20386;-86
2021/10/26 01:21:05;;;;;;;10.20;8.47;;;7.10;99.90;;;;;;6230537;22;20517;-86
2021/10/26 01:23:34;;;;;;;9.97;8.33;;;7.20;99.90;;;;;;6231203;22;20496;-86
2021/10/26 01:26:00;;;;;;;15.83;8.17;;;7.40;99.90;;;;;;6230782;22;20861;-87
2021/10/26 01:28:26;;;;;;;8.70;7.70;;;7.40;99.90;;;;;;6237339;22;20416;-86
2021/10/26 01:30:53;;;;;;;8.83;7.93;;;7.30;99.90;;;;;;6246468;22;20703;-86
2021/10/26 01:33:18;;;;;;;9.17;8.27;;;7.30;99.90;;;;;;6231665;22;20895;-86
2021/10/26 01:35:44;;;;;;;8.60;7.70;;;7.30;99.90;;;;;;6232264;22;20416;-86
2021/10/26 01:38:10;;;;;;;9.93;8.57;;;7.40;99.90;;;;;;6232168;22;20167;-85
2021/10/26 01:40:36;;;;;;;8.23;7.47;;;7.40;99.90;;;;;;6231285;22;20405;-86
2021/10/26 01:43:03;;;;;;;8.70;7.53;;;7.40;99.90;;;;;;6229447;22;20395;-87
2021/10/26 01:45:31;;;;;;;8.83;7.93;;;7.50;99.90;;;;;;6231460;22;20730;-86
2021/10/26 01:47:57;;;;;;;9.60;8.60;;;7.60;99.90;;;;;;6237235;22;20436;-86
2021/10/26 01:50:25;;;;;;;8.43;7.70;;;7.70;99.90;;;;;;6236205;22;20400;-87
2021/10/26 01:52:51;;;;;;;9.50;8.50;;;7.80;99.90;;;;;;6228292;22;20163;-87
2021/10/26 01:55:28;;;;;;;8.43;7.47;;;7.80;99.90;;;;;;6232124;22;20496;-87
2021/10/26 01:57:54;;;;;;;8.50;7.70;;;7.80;99.90;;;;;;6232563;23;20555;-87
2021/10/26 02:00:21;;;;;;;10.77;7.83;;;7.80;99.90;;;;;;6234773;22;20417;-87
2021/10/26 02:02:49;;;;;;;9.23;7.53;;;7.90;99.90;;;;;;6231681;22;20439;-87
2021/10/26 02:05:15;;;;;;;9.00;7.70;;;7.80;99.90;;;;;;6229608;22;20428;-87
2021/10/26 02:07:41;;;;;;;10.13;8.13;;;7.80;99.90;;;;;;6233277;22;20448;-87
2021/10/26 02:10:08;;;;;;;10.30;9.30;;;8.00;99.90;;;;;;6231299;23;20452;-86
2021/10/26 02:12:34;;;;;;;11.40;10.00;;;8.10;99.90;;;;;;6230865;22;20465;-87
2021/10/26 02:15:00;;;;;;;11.07;9.97;;;8.10;99.90;;;;;;6236970;22;20405;-87
2021/10/26 02:17:26;;;;;;;11.00;9.10;;;8.10;99.90;;;;;;6237543;22;20151;-87
2021/10/26 02:19:51;;;;;;;8.87;7.97;;;8.00;99.90;;;;;;6236310;22;20169;-87
2021/10/26 02:22:17;;;;;;;9.70;8.80;;;8.10;99.90;;;;;;6235943;22;20169;-87
2021/10/26 02:24:44;;;;;;;9.07;8.17;;;8.10;99.90;;;;;;6232153;22;20540;-87
2021/10/26 02:27:14;;;;;;;8.30;7.50;;;8.30;99.90;;;;;;6232057;22;20453;-87
2021/10/26 02:29:40;;;;;;;9.10;7.80;;;8.40;99.90;;;;;;6236714;22;20869;-87
2021/10/26 02:32:06;;;;;;;9.27;8.37;;;8.30;99.90;;;;;;6233197;23;20403;-87
2021/10/26 02:34:32;;;;;;;9.20;8.13;;;8.30;99.90;;;;;;6233567;22;20159;-86
2021/10/26 02:36:58;;;;;;;12.07;9.63;;;8.30;99.90;;;;;;6233494;22;20388;-87
2021/10/26 02:39:27;;;;;;;10.03;9.07;;;8.10;99.90;;;;;;6233309;22;20489;-87
2021/10/26 02:41:52;;;;;;;9.70;8.80;;;8.00;99.90;;;;;;6232934;22;20532;-86
2021/10/26 02:44:18;;;;;;;11.33;9.13;;;8.00;99.90;;;;;;6231888;23;20507;-85
2021/10/26 02:46:44;;;;;;;9.70;8.70;;;8.00;99.90;;;;;;6236666;22;20644;-86
2021/10/26 02:49:10;;;;;;;8.50;7.40;;;8.00;99.90;;;;;;6236751;22;20192;-85
2021/10/26 02:51:36;;;;;;;9.13;8.17;;;7.90;99.90;;;;;;6233007;22;20190;-86
2021/10/26 02:54:02;;;;;;;9.50;8.37;;;7.80;99.90;;;;;;6232731;22;20460;-86
2021/10/26 02:56:28;;;;;;;8.43;7.60;;;7.80;99.90;;;;;;6233090;22;20397;-86
2021/10/26 02:58:54;;;;;;;10.60;8.93;;;7.80;99.90;;;;;;6239269;22;20403;-87
2021/10/26 03:01:20;;;;;;;10.67;9.57;;;7.70;99.90;;;;;;6241529;22;20598;-87
2021/10/26 03:03:45;;;;;;;13.17;9.23;;;7.60;99.90;;;;;;6233375;22;20664;-87
2021/10/26 03:06:13;;;;;;;9.53;8.57;;;7.60;99.90;;;;;;6232997;22;20873;-87
2021/10/26 03:08:39;;;;;;;9.37;8.47;;;7.60;99.90;;;;;;6235585;22;20506;-86
2021/10/26 03:11:04;;;;;;;10.70;9.43;;;7.50;99.90;;;;;;6232400;22;20418;-86
2021/10/26 03:13:31;;;;;;;11.10;9.20;;;7.50;99.90;;;;;;6233122;22;20223;-87
2021/10/26 03:15:58;;;;;;;11.00;9.83;;;7.50;99.90;;;;;;6231947;23;20497;-87
2021/10/26 03:18:24;;;;;;;10.10;9.10;;;7.60;99.90;;;;;;6237022;22;20532;-87
2021/10/26 03:20:51;;;;;;;9.97;8.97;;;7.60;99.90;;;;;;6235983;22;20427;-86
2021/10/26 03:23:17;;;;;;;10.23;9.03;;;7.70;99.90;;;;;;6231730;22;20494;-86
2021/10/26 03:25:43;;;;;;;9.43;8.50;;;7.60;99.90;;;;;;6233425;22;20391;-86
2021/10/26 03:28:13;;;;;;;10.33;9.33;;;7.70;99.90;;;;;;6233840;22;20846;-86
2021/10/26 03:30:39;;;;;;;9.67;8.50;;;7.80;99.90;;;;;;6232642;23;20397;-86
2021/10/26 03:33:04;;;;;;;9.40;8.50;;;7.80;99.90;;;;;;6231231;22;20407;-86
2021/10/26 03:35:30;;;;;;;8.87;7.90;;;7.80;99.90;;;;;;6231482;22;20728;-86
2021/10/26 03:37:56;;;;;;;10.43;9.33;;;7.80;99.90;;;;;;6232173;22;20616;-86
2021/10/26 03:40:22;;;;;;;10.10;8.87;;;7.70;99.90;;;;;;6231368;22;20166;-86
2021/10/26 03:42:47;;;;;;;10.23;8.10;;;7.70;99.90;;;;;;6232603;22;20758;-87
2021/10/26 03:45:13;;;;;;;9.70;8.50;;;7.80;99.90;;;;;;6231992;22;20231;-86
2021/10/26 03:47:40;;;;;;;8.27;7.40;;;7.80;99.90;;;;;;6235592;22;20231;-87
2021/10/26 03:50:07;;;;;;;11.37;9.60;;;7.90;99.90;;;;;;6234613;22;20163;-86
2021/10/26 03:52:33;;;;;;;12.80;10.17;;;7.90;99.90;;;;;;6231532;22;20428;-87
2021/10/26 03:54:59;;;;;;;10.67;9.27;;;7.90;99.90;;;;;;6231077;22;20717;-87
2021/10/26 03:57:25;;;;;;;11.20;8.90;;;7.90;99.90;;;;;;6230670;22;20155;-86
2021/10/26 03:59:53;;;;;;;10.90;9.00;;;7.90;99.90;;;;;;6232336;22;20408;-86
2021/10/26 04:02:27;;;;;;;9.80;8.80;;;7.90;99.90;;;;;;6233415;22;20613;-86
2021/10/26 04:04:58;;;;;;;10.00;8.97;;;7.80;99.90;;;;;;6232924;22;20445;-87
2021/10/26 04:07:25;;;;;;;11.10;10.10;;;7.80;99.90;;;;;;6231666;22;20529;-87
2021/10/26 04:10:06;;;;;;;11.37;9.70;;;7.70;99.90;;;;;;6230853;22;20561;-87
2021/10/26 04:12:32;;;;;;;10.43;9.30;;;7.60;99.90;;;;;;6231311;22;20524;-86
2021/10/26 04:15:07;;;;;;;11.20;9.00;;;7.60;99.90;;;;;;6230809;22;20412;-86
2021/10/26 04:17:32;;;;;;;8.70;7.90;;;7.50;99.90;;;;;;6231403;22;20402;-87
2021/10/26 04:19:59;;;;;;;9.13;8.17;;;7.50;99.90;;;;;;6234693;22;20495;-87
2021/10/26 04:22:26;;;;;;;9.60;8.40;;;7.50;99.90;;;;;;6231785;23;20177;-87
2021/10/26 04:24:52;;;;;;;9.10;7.90;;;7.50;99.90;;;;;;6231835;22;20398;-87
2021/10/26 04:27:18;;;;;;;9.37;7.93;;;7.40;99.90;;;;;;6233391;22;20437;-87
2021/10/26 04:29:53;;;;;;;10.20;9.20;;;7.50;99.90;;;;;;6244775;22;20393;-87
2021/10/26 04:32:19;;;;;;;10.83;9.73;;;7.40;99.90;;;;;;6235463;22;20398;-87
2021/10/26 04:34:45;;;;;;;10.33;9.23;;;7.30;99.90;;;;;;6231945;22;20507;-88
2021/10/26 04:37:10;;;;;;;10.30;9.30;;;7.30;99.90;;;;;;6232184;23;20410;-87
2021/10/26 04:39:53;;;;;;;12.30;9.43;;;7.20;99.90;;;;;;6231632;22;20169;-87
2021/10/26 04:42:18;;;;;;;10.70;8.60;;;7.20;99.90;;;;;;6231757;22;20170;-87
2021/10/26 04:44:44;;;;;;;10.77;8.43;;;7.20;99.90;;;;;;6233721;22;20878;-88
2021/10/26 04:47:10;;;;;;;9.50;8.47;;;7.10;99.90;;;;;;6233595;22;20198;-88
2021/10/26 04:49:35;;;;;;;11.13;8.80;;;7.00;99.90;;;;;;6235368;22;20255;-88
2021/10/26 04:52:01;;;;;;;10.03;8.53;;;7.00;99.90;;;;;;6237195;22;20604;-89
2021/10/26 04:54:30;;;;;;;13.23;9.20;;;7.10;99.90;;;;;;6236989;22;20235;-89
2021/10/26 04:56:57;;;;;;;9.47;8.37;;;7.00;99.90;;;;;;6235772;22;20400;-88
2021/10/26 04:59:22;;;;;;;10.50;8.87;;;7.00;99.90;;;;;;6231347;22;20415;-88
2021/10/26 05:01:48;;;;;;;12.00;9.90;;;6.90;99.90;;;;;;6229937;22;20407;-88
2021/10/26 05:04:15;;;;;;;9.80;8.80;;;6.90;99.90;;;;;;6230358;22;20250;-88
2021/10/26 05:06:40;;;;;;;11.73;9.77;;;6.90;99.90;;;;;;6231487;22;20513;-85
2021/10/26 05:09:06;;;;;;;11.87;8.73;;;6.90;99.90;;;;;;6231657;22;20406;-86
2021/10/26 05:11:35;;;;;;;9.87;8.87;;;7.00;99.90;;;;;;6231348;23;20158;-87
2021/10/26 05:14:01;;;;;;;10.43;8.43;;;7.00;99.90;;;;;;6231380;22;20548;-87
2021/10/26 05:16:28;;;;;;;14.20;11.33;;;7.10;99.90;;;;;;6231799;22;20395;-86
2021/10/26 05:18:57;;;;;;;17.50;13.83;;;7.00;99.90;;;;;;6231095;22;20613;-87
2021/10/26 05:21:31;;;;;;;15.70;12.13;;;7.10;99.90;;;;;;6231956;22;20387;-87
2021/10/26 05:23:57;;;;;;;16.50;11.10;;;7.10;99.90;;;;;;6231032;22;20388;-86
2021/10/26 05:26:26;;;;;;;12.30;11.10;;;7.10;99.90;;;;;;6230315;22;20436;-86
2021/10/26 05:28:52;;;;;;;12.37;10.23;;;7.10;99.90;;;;;;6232213;22;20712;-86
2021/10/26 05:31:21;;;;;;;10.27;9.03;;;7.10;99.90;;;;;;6231571;22;20427;-88
2021/10/26 05:33:47;;;;;;;11.03;9.70;;;7.10;99.90;;;;;;6225162;22;20470;-85
2021/10/26 05:36:15;;;;;;;10.00;9.00;;;7.10;99.90;;;;;;6230300;22;20394;-85
2021/10/26 05:38:48;;;;;;;9.53;8.63;;;7.10;99.90;;;;;;6231277;22;20411;-87
2021/10/26 05:41:14;;;;;;;10.70;9.70;;;7.30;99.90;;;;;;6230782;22;20476;-86
2021/10/26 05:43:44;;;;;;;10.80;9.33;;;7.40;99.90;;;;;;6233167;22;20892;-87
2021/10/26 05:46:10;;;;;;;12.13;10.20;;;7.20;99.90;;;;;;6231648;22;20231;-87
2021/10/26 05:48:35;;;;;;;11.03;9.93;;;7.20;99.90;;;;;;6231532;22;20428;-86
2021/10/26 05:51:03;;;;;;;11.83;10.20;;;7.10;99.90;;;;;;6231888;22;20216;-89
2021/10/26 05:53:29;;;;;;;9.67;8.57;;;7.10;99.90;;;;;;6232187;22;20266;-86
2021/10/26 05:56:05;;;;;;;10.90;9.77;;;7.10;99.90;;;;;;6231072;22;20414;-89
2021/10/26 05:58:55;;;;;;;10.70;9.37;;;7.00;99.90;;;;;;6236351;22;20176;-88
2021/10/26 06:01:26;;;;;;;15.70;9.97;;;7.10;99.90;;;;;;6247166;22;20775;-92
2021/10/26 06:04:02;;;;;;;12.40;9.83;;;7.20;99.90;;;;;;6235200;22;20395;-93
2021/10/26 06:06:28;;;;;;;11.57;10.40;;;7.30;99.90;;;;;;6233019;22;20902;-90
2021/10/26 06:09:01;;;;;;;11.53;9.73;;;7.50;99.90;;;;;;6238512;22;20408;-93
2021/10/26 06:11:51;;;;;;;12.30;10.70;;;7.50;99.90;;;;;;6239686;22;20399;-93
2021/10/26 06:14:30;;;;;;;11.60;10.40;;;7.60;99.90;;;;;;6216921;22;20397;-94
2021/10/26 06:20:04;;;;;;;12.10;10.20;;;7.50;99.90;;;;;;6235778;22;20387;-91
2021/10/26 06:22:33;;;;;;;11.03;9.93;;;7.60;99.90;;;;;;6233535;22;20388;-93
2021/10/26 06:25:02;;;;;;;11.50;10.37;;;7.70;99.90;;;;;;6234601;22;20400;-91
2021/10/26 06:27:29;;;;;;;13.23;11.40;;;7.70;99.90;;;;;;6237445;22;20553;-94
2021/10/26 06:30:00;;;;;;;11.17;9.97;;;7.80;99.90;;;;;;6237052;22;20391;-91
2021/10/26 06:32:48;;;;;;;;;;;;;;;;;;;;;
2021/10/26 06:35:14;;;;;;;12.23;10.30;;;7.70;99.90;;;;;;6236209;22;20936;-93
2021/10/26 06:37:55;;;;;;;;;;;;;;;;;;;;;
2021/10/26 06:40:24;;;;;;;13.90;11.13;;;7.70;99.90;;;;;;6234502;22;20237;-93
2021/10/26 06:42:50;;;;;;;12.03;10.20;;;7.70;99.90;;;;;;6237774;22;20439;-92
2021/10/26 06:45:18;;;;;;;11.50;10.40;;;7.70;99.90;;;;;;6235753;22;20393;-93
2021/10/26 06:47:45;;;;;;;11.90;8.90;;;7.80;99.90;;;;;;6236080;22;20494;-92
2021/10/26 06:50:14;;;;;;;10.53;9.37;;;7.90;99.90;;;;;;6237958;22;20729;-93
2021/10/26 06:52:39;;;;;;;10.27;9.20;;;8.00;99.90;;;;;;6236391;22;20395;-93
2021/10/26 06:55:06;;;;;;;13.37;9.20;;;7.90;99.90;;;;;;6236720;22;20663;-92
2021/10/26 06:57:36;;;;;;;12.60;9.83;;;8.00;99.90;;;;;;6235464;22;20165;-93
2021/10/26 07:00:07;;;;;;;14.23;10.90;;;8.10;99.90;;;;;;6239188;22;20451;-94
2021/10/26 07:02:58;;;;;;;13.70;11.17;;;8.00;99.90;;;;;;6235369;22;20408;-94
2021/10/26 07:05:31;;;;;;;14.70;10.63;;;8.00;99.90;;;;;;6237767;22;20576;-94
2021/10/26 07:07:57;;;;;;;11.73;10.00;;;7.90;99.90;;;;;;6232763;22;20469;-92
2021/10/26 07:10:23;;;;;;;12.67;9.00;;;7.90;99.90;;;;;;6232336;22;20422;-94
2021/10/26 07:13:00;;;;;;;11.00;9.87;;;7.90;99.90;;;;;;6230107;22;21007;-93
2021/10/26 07:15:29;;;;;;;12.13;9.50;;;8.00;99.90;;;;;;6231546;22;20422;-92
2021/10/26 07:18:12;;;;;;;12.90;9.57;;;8.00;99.90;;;;;;6233865;22;20386;-91
2021/10/26 07:20:44;;;;;;;11.10;9.97;;;8.10;99.90;;;;;;6235609;22;20406;-93
2021/10/26 07:23:29;;;;;;;10.40;9.30;;;8.20;99.90;;;;;;6237634;22;20405;-92
2021/10/26 07:25:55;;;;;;;9.57;8.30;;;8.40;99.90;;;;;;6236224;22;20807;-92
2021/10/26 07:28:28;;;;;;;9.60;8.60;;;8.60;99.90;;;;;;6235832;22;20613;-88
2021/10/26 07:31:09;;;;;;;10.00;9.00;;;8.60;99.90;;;;;;6248403;22;20159;-90
2021/10/26 07:33:35;;;;;;;12.33;11.20;;;8.80;99.90;;;;;;6239303;22;20406;-91
2021/10/26 07:36:07;;;;;;;12.00;10.80;;;8.80;99.90;;;;;;6238488;22;20162;-91
2021/10/26 07:38:39;;;;;;;11.53;10.33;;;8.80;99.90;;;;;;6241581;22;20394;-92
2021/10/26 07:41:05;;;;;;;12.20;10.73;;;8.80;99.90;;;;;;6239570;22;20393;-92
2021/10/26 07:43:35;;;;;;;12.47;11.10;;;8.80;99.90;;;;;;6238623;22;20409;-90
2021/10/26 07:46:10;;;;;;;12.43;11.13;;;8.70;99.90;;;;;;6238873;22;20393;-91
2021/10/26 07:48:38;;;;;;;13.90;11.37;;;8.60;99.90;;;;;;6241660;22;20421;-93
2021/10/26 07:51:04;;;;;;;12.63;10.50;;;8.60;99.90;;;;;;6238682;22;20390;-91
2021/10/26 07:53:33;;;;;;;14.60;10.80;;;8.70;99.90;;;;;;6239650;22;20499;-91
2021/10/26 07:56:37;;;;;;;13.20;11.47;;;8.90;99.90;;;;;;6239880;22;20159;-92
2021/10/26 07:59:05;;;;;;;15.27;11.27;;;9.00;99.90;;;;;;6212274;23;20406;-92
2021/10/26 08:01:33;;;;;;;12.70;11.40;;;9.20;99.90;;;;;;6239383;22;20855;-92
2021/10/26 08:03:59;;;;;;;12.40;10.90;;;9.40;99.90;;;;;;6239417;22;20398;-93
2021/10/26 08:06:25;;;;;;;13.13;11.30;;;9.50;99.90;;;;;;6237967;22;20393;-94
2021/10/26 08:09:01;;;;;;;11.03;9.83;;;9.70;99.90;;;;;;6239066;22;20171;-94
2021/10/26 08:11:32;;;;;;;13.43;11.83;;;10.00;99.90;;;;;;6239942;22;20408;-92
2021/10/26 08:14:06;;;;;;;11.93;10.63;;;10.20;99.90;;;;;;6238839;22;20410;-93
2021/10/26 08:16:37;;;;;;;13.33;10.70;;;10.30;99.90;;;;;;6238134;22;20409;-92
2021/10/26 08:19:04;;;;;;;12.43;10.50;;;10.20;99.90;;;;;;6232067;22;20398;-88
2021/10/26 08:21:33;;;;;;;13.37;10.90;;;10.20;99.90;;;;;;6232596;22;20408;-91
2021/10/26 08:24:18;;;;;;;11.63;10.47;;;10.30;99.90;;;;;;6234280;22;20398;-92
2021/10/26 08:27:09;;;;;;;11.90;10.20;;;10.30;99.90;;;;;;6233076;22;20428;-91
2021/10/26 08:30:43;;;;;;;12.13;10.63;;;10.20;99.90;;;;;;6237013;22;20726;-91
2021/10/26 08:33:01;;;;;;;11.00;9.80;;;10.10;99.90;;;;;;6226744;22;20425;-90
2021/10/26 08:35:30;;;;;;;11.97;10.70;;;10.10;99.90;;;;;;6232523;22;20430;-90
2021/10/26 08:38:07;;;;;;;11.63;10.43;;;10.00;99.90;;;;;;6232010;22;20455;-89
2021/10/26 08:40:55;;;;;;;12.67;9.80;;;10.00;99.90;;;;;;6235003;22;20401;-90
2021/10/26 08:43:23;;;;;;;13.33;11.93;;;10.10;99.90;;;;;;6231555;22;20437;-91
2021/10/26 08:46:18;;;;;;;12.53;11.30;;;10.20;99.90;;;;;;6232292;22;20427;-92
2021/10/26 08:49:06;;;;;;;12.90;11.60;;;10.40;99.90;;;;;;6232975;22;20991;-93
2021/10/26 08:51:35;;;;;;;13.30;11.70;;;10.70;99.90;;;;;;6232835;22;20880;-92
2021/10/26 08:54:16;;;;;;;13.33;11.80;;;10.80;99.90;;;;;;6233767;22;20401;-93
2021/10/26 08:56:47;;;;;;;12.37;10.27;;;10.70;99.90;;;;;;6233750;22;20401;-92
2021/10/26 09:02:09;;;;;;;11.57;10.40;;;11.30;99.90;;;;;;6206674;22;20953;-91
2021/10/26 09:04:54;;;;;;;12.43;9.87;;;12.10;99.90;;;;;;6235446;22;20417;-91
2021/10/26 09:08:16;;;;;;;;;;;;;;;;;;;;;
2021/10/26 09:10:49;;;;;;;10.60;9.50;;;12.80;99.90;;;;;;6227503;22;20496;-91
2021/10/26 09:16:56;;;;;;;10.47;9.07;;;13.70;99.90;;;;;;6198933;22;20421;-91
2021/10/26 09:22:58;;;;;;;;;;;;;;;;;;;;;
2021/10/26 09:25:39;;;;;;;11.17;8.87;;;14.70;99.90;;;;;;6234559;22;20512;-90
2021/10/26 09:28:31;;;;;;;11.17;9.57;;;14.40;99.90;;;;;;6232341;22;20452;-89
2021/10/26 09:35:15;;;;;;;;;;;;;;;;;;;;;
2021/10/26 09:37:55;;;;;;;10.20;9.20;;;13.40;99.90;;;;;;6235533;22;20488;-90
2021/10/26 09:40:47;;;;;;;10.50;9.33;;;13.20;99.90;;;;;;6233970;22;20390;-90
2021/10/26 09:43:23;;;;;;;;;;;;;;;;;;;;;
2021/10/26 09:46:38;;;;;;;9.97;8.97;;;13.10;99.90;;;;;;6233588;22;20484;-89
2021/10/26 09:49:34;;;;;;;;;;;;;;;;;;;;;
2021/10/26 09:52:25;;;;;;;;;;;;;;;;;;;;;
2021/10/26 09:55:14;;;;;;;10.37;8.23;;;14.00;99.90;;;;;;6237859;22;20733;-90
2021/10/26 09:58:29;;;;;;;10.40;9.40;;;14.10;99.90;;;;;;6229563;22;20503;-91
2021/10/26 10:05:14;;;;;;;11.97;9.20;;;14.40;99.90;;;;;;6201931;22;20472;-92
2021/10/26 10:07:49;;;;;;;10.37;9.07;;;14.40;99.90;;;;;;6228342;22;20477;-93
2021/10/26 10:29:07;;;;;;;;;;;;;;;;;;;;;
2021/10/26 10:31:40;;;;;;;10.40;6.30;;;14.90;99.90;;;;;;6241015;23;20401;-91
2021/10/26 10:34:56;;;;;;;;;;;;;;;;;;;;;
2021/10/26 10:58:24;;;;;;;6.87;5.00;;;15.70;99.90;;;;;;6229159;22;20751;-88
2021/10/26 11:00:53;;;;;;;5.03;4.50;;;15.90;99.90;;;;;;6200990;23;20903;-87
2021/10/26 11:03:32;;;;;;;5.27;4.30;;;15.80;99.90;;;;;;6199578;23;20401;-87
2021/10/26 11:06:00;;;;;;;253.53;228.90;;;15.50;99.90;;;;;;6200408;23;20413;-88
2021/10/26 11:08:44;;;;;;;16.30;13.87;;;15.30;99.90;;;;;;6200886;23;20472;-87
2021/10/26 11:11:11;;;;;;;5.53;4.13;;;15.30;99.90;;;;;;6201096;23;20909;-87
2021/10/26 11:13:37;;;;;;;8.00;4.30;;;15.70;99.90;;;;;;6201336;23;20480;-87
2021/10/26 11:16:09;;;;;;;4.40;4.00;;;16.20;99.90;;;;;;6200477;23;21074;-88
2021/10/26 11:18:59;;;;;;;;;;;;;;;;;;;;;
2021/10/26 11:21:34;;;;;;;13.87;4.70;;;16.90;99.90;;;;;;6229089;23;20424;-88
2021/10/26 11:24:01;;;;;;;5.13;4.03;;;17.30;99.90;;;;;;6226570;23;20400;-89
2021/10/26 11:26:42;;;;;;;5.17;4.63;;;17.40;99.90;;;;;;6200542;23;20405;-89
2021/10/26 11:29:11;;;;;;;4.17;3.43;;;17.60;99.90;;;;;;6200490;23;20401;-88
2021/10/26 11:31:54;;;;;;;4.93;3.30;;;17.60;99.70;;;;;;6200501;23;20492;-89
2021/10/26 11:34:34;;;;;;;4.23;3.83;;;17.20;99.90;;;;;;6199303;23;20425;-89
2021/10/26 11:37:09;;;;;;;6.97;5.60;;;16.90;99.90;;;;;;6199876;23;20389;-90
2021/10/26 11:39:38;;;;;;;5.30;4.00;;;16.30;99.90;;;;;;6200688;23;20742;-90
2021/10/26 11:42:18;;;;;;;6.50;4.57;;;16.00;99.90;;;;;;6199524;23;20401;-91
2021/10/26 11:44:57;;;;;;;;;;;;;;;;;;;;;
2021/10/26 11:47:23;;;;;;;7.00;5.57;;;16.40;99.90;;;;;;6228543;23;20441;-89
2021/10/26 11:50:07;;;;;;;;;;;;;;;;;;;;;
2021/10/26 16:16:19;;;;;;;;;;;;;;;;;;;;;
2021/10/26 16:18:41;;;;;;;3.17;2.87;;;11.50;99.90;;;;;;6201224;23;20902;-91
2021/10/26 16:24:07;;;;;;;3.80;2.53;;;11.50;99.90;;;;;;6209690;23;20438;-91
2021/10/26 16:26:46;;;;;;;4.60;2.87;;;11.40;99.90;;;;;;6207829;23;20425;-92
2021/10/26 16:29:16;;;;;;;3.50;2.60;;;11.20;99.90;;;;;;6210145;23;20432;-93
2021/10/26 16:31:48;;;;;;;2.47;2.27;;;11.10;99.90;;;;;;6225992;23;20409;-92
2021/10/26 16:34:15;;;;;;;8.87;2.83;;;11.10;99.90;;;;;;6210886;23;20978;-93
2021/10/26 16:36:42;;;;;;;2.47;2.17;;;11.00;99.90;;;;;;6200911;23;20429;-93
2021/10/26 16:39:09;;;;;;;2.80;2.57;;;10.90;99.90;;;;;;6202380;23;20510;-92
2021/10/26 16:44:28;;;;;;;3.80;2.80;;;10.70;99.90;;;;;;6205215;23;20767;-95
2021/10/26 16:47:22;;;;;;;3.30;3.00;;;10.60;99.90;;;;;;6213862;23;20430;-96
2021/10/26 16:49:52;;;;;;;3.10;2.80;;;10.50;99.90;;;;;;6215350;23;20465;-96
2021/10/26 16:52:52;;;;;;;;;;;;;;;;;;;;;
2021/10/26 16:55:24;;;;;;;4.50;3.00;;;10.40;99.90;;;;;;6198359;23;20474;-95
2021/10/26 16:57:49;;;;;;;5.37;3.00;;;10.40;99.90;;;;;;6204787;23;20395;-94
2021/10/26 17:00:18;;;;;;;4.70;2.73;;;10.40;99.90;;;;;;6207964;23;20394;-93
2021/10/26 17:02:45;;;;;;;2.70;2.30;;;10.40;99.90;;;;;;6201489;23;20221;-89
2021/10/26 17:05:12;;;;;;;4.77;3.27;;;10.40;99.90;;;;;;6198011;23;20692;-89
2021/10/26 17:07:38;;;;;;;4.23;2.90;;;10.40;99.90;;;;;;6196471;23;20446;-88
2021/10/26 17:10:07;;;;;;;5.33;2.63;;;10.40;99.90;;;;;;6197558;23;20470;-88
2021/10/26 17:12:34;;;;;;;3.67;3.37;;;10.40;99.90;;;;;;6198451;23;20382;-87
2021/10/26 17:15:07;;;;;;;6.37;3.10;;;10.40;99.90;;;;;;6201398;23;20457;-90
2021/10/26 17:17:34;;;;;;;4.77;3.67;;;10.40;99.90;;;;;;6201567;23;20702;-89
2021/10/26 17:20:00;;;;;;;4.80;3.80;;;10.50;99.90;;;;;;6174399;23;20390;-89
2021/10/26 17:22:26;;;;;;;5.43;4.60;;;10.50;99.90;;;;;;6197583;23;20386;-88
2021/10/26 17:24:52;;;;;;;3.40;3.10;;;10.60;99.90;;;;;;6198573;23;20391;-88
2021/10/26 17:27:18;;;;;;;7.13;3.10;;;10.70;99.90;;;;;;6197740;23;20445;-88
2021/10/26 17:29:44;;;;;;;3.07;2.80;;;10.70;99.90;;;;;;6170564;23;20398;-88
2021/10/26 17:32:11;;;;;;;3.73;3.33;;;10.70;99.90;;;;;;6199911;23;20399;-88
2021/10/26 17:34:38;;;;;;;4.60;2.97;;;10.70;99.90;;;;;;6169141;23;20238;-88
2021/10/26 17:37:06;;;;;;;9.33;3.50;;;10.70;99.90;;;;;;6197789;23;20399;-89
2021/10/26 17:39:32;;;;;;;8.53;3.60;;;10.70;99.90;;;;;;6197326;23;20625;-88
2021/10/26 17:41:58;;;;;;;5.10;3.63;;;10.70;99.90;;;;;;6167697;23;20954;-88
2021/10/26 17:44:24;;;;;;;3.60;3.10;;;10.60;99.90;;;;;;6168529;23;20494;-88
2021/10/26 17:46:51;;;;;;;5.40;3.70;;;10.50;99.90;;;;;;6197101;23;20258;-87
2021/10/26 17:49:17;;;;;;;4.20;3.60;;;10.40;99.90;;;;;;6195230;23;20543;-88
2021/10/26 17:51:43;;;;;;;4.70;4.00;;;10.40;99.90;;;;;;6206068;23;20512;-89
2021/10/26 17:54:15;;;;;;;3.80;3.40;;;10.50;99.90;;;;;;6206169;23;20156;-94
2021/10/26 17:56:46;;;;;;;3.80;3.50;;;10.60;99.90;;;;;;6209647;23;20386;-91
2021/10/26 17:59:13;;;;;;;4.57;3.70;;;10.60;99.90;;;;;;6185847;23;20638;-89
2021/10/26 18:01:39;;;;;;;4.17;3.77;;;10.60;99.90;;;;;;6229216;23;20389;-90
2021/10/26 18:04:07;;;;;;;6.60;3.77;;;10.60;99.90;;;;;;6211179;23;20387;-90
2021/10/26 18:06:34;;;;;;;4.63;3.90;;;10.70;99.90;;;;;;6207898;23;20762;-89
2021/10/26 18:09:04;;;;;;;4.50;3.90;;;10.60;99.90;;;;;;6179015;23;20405;-89
2021/10/26 18:11:42;;;;;;;4.30;3.87;;;10.50;99.90;;;;;;6207648;23;20386;-89
2021/10/26 18:14:09;;;;;;;7.67;3.50;;;10.50;99.90;;;;;;6181681;23;20411;-89
2021/10/26 18:16:36;;;;;;;6.00;4.20;;;10.50;99.90;;;;;;6200683;23;20461;-89
2021/10/26 18:19:02;;;;;;;6.00;5.20;;;10.40;99.90;;;;;;6206998;23;20489;-90
2021/10/26 18:21:29;;;;;;;6.40;4.30;;;10.30;99.90;;;;;;6206523;23;20383;-89
2021/10/26 18:23:55;;;;;;;4.90;4.20;;;10.20;99.90;;;;;;6207161;23;20869;-89
2021/10/26 18:26:21;;;;;;;4.67;4.17;;;10.00;99.90;;;;;;6206785;23;20777;-89
2021/10/26 18:28:51;;;;;;;3.60;3.30;;;10.00;99.90;;;;;;6205253;23;20937;-89
2021/10/26 18:31:24;;;;;;;5.03;3.60;;;10.10;99.90;;;;;;6206679;23;20417;-89
2021/10/26 18:33:50;;;;;;;5.10;4.60;;;10.10;99.90;;;;;;6206991;23;20395;-89
2021/10/26 18:36:17;;;;;;;7.40;3.90;;;10.20;99.90;;;;;;6205949;23;20399;-90
2021/10/26 18:38:43;;;;;;;5.03;4.53;;;10.20;99.90;;;;;;6206642;23;20498;-90
2021/10/26 18:43:38;;;;;;;10.97;6.37;;;10.20;99.90;;;;;;6210420;23;20394;-89
2021/10/26 18:46:09;;;;;;;7.63;6.87;;;10.30;99.90;;;;;;6209889;23;20387;-91
2021/10/26 18:48:37;;;;;;;5.87;5.27;;;10.30;99.90;;;;;;6210641;23;20434;-91
2021/10/26 18:51:03;;;;;;;6.53;5.93;;;10.30;99.90;;;;;;6209710;23;20406;-91
2021/10/26 18:53:28;;;;;;;5.97;5.40;;;10.30;99.90;;;;;;6210085;23;20403;-91